Time;durP1;ratioP1;P1;durP2;ratioP2;P2;SDS_P1;SDS_P2;PMS_P1;PMS_P2;Temp;Humidity;BMP_temperature;BMP_pressure;BME280_temperature;BME280_humidity;BME280_pressure;Samples;Min_cycle;Max_cycle;Signal;HPM_P1;HPM_P2
2023/03/29 00:01:52;;;;;;;0.30;0.30;;;8.40;99.90;;;;;;5073215;28;20009;-70
2023/03/29 00:04:18;;;;;;;2.65;1.40;;;8.20;99.90;;;;;;5072841;28;20392;-70
2023/03/29 00:06:46;;;;;;;0.52;0.47;;;8.20;99.90;;;;;;5072928;28;20044;-70
2023/03/29 00:09:14;;;;;;;1.15;0.80;;;8.20;99.90;;;;;;5073205;28;20142;-70
2023/03/29 00:11:41;;;;;;;0.32;0.32;;;8.30;99.90;;;;;;5072788;28;20028;-70
2023/03/29 00:14:07;;;;;;;0.50;0.50;;;8.50;99.90;;;;;;5072729;28;20488;-70
2023/03/29 00:16:32;;;;;;;0.50;0.50;;;8.50;99.90;;;;;;5072845;28;20110;-70
2023/03/29 00:18:58;;;;;;;0.30;0.30;;;8.40;99.90;;;;;;5071605;28;20052;-70
2023/03/29 00:21:24;;;;;;;7.53;1.23;;;8.40;99.90;;;;;;5071434;28;20035;-70
2023/03/29 00:23:50;;;;;;;0.30;0.30;;;8.40;99.90;;;;;;5072654;28;20031;-70
2023/03/29 00:26:16;;;;;;;5.38;1.25;;;8.40;99.90;;;;;;5072629;28;20107;-70
2023/03/29 00:28:42;;;;;;;0.63;0.47;;;8.40;99.90;;;;;;5072517;28;20477;-70
2023/03/29 00:31:13;;;;;;;0.38;0.35;;;8.60;99.90;;;;;;5072729;28;20031;-70
2023/03/29 00:33:40;;;;;;;0.60;0.52;;;8.40;99.90;;;;;;5071115;28;20027;-70
2023/03/29 00:36:08;;;;;;;0.50;0.50;;;8.40;99.90;;;;;;5071661;28;20372;-70
2023/03/29 00:38:34;;;;;;;1.00;0.30;;;8.60;99.90;;;;;;5071148;28;20028;-70
2023/03/29 00:41:00;;;;;;;0.10;0.10;;;8.70;99.90;;;;;;5072533;28;20043;-70
2023/03/29 00:43:26;;;;;;;0.38;0.38;;;8.40;99.90;;;;;;5071601;28;20152;-71
2023/03/29 00:45:52;;;;;;;0.88;0.45;;;8.50;99.90;;;;;;5070921;28;20053;-70
2023/03/29 00:48:24;;;;;;;1.85;0.60;;;8.50;99.90;;;;;;5071106;28;20025;-70
2023/03/29 00:51:00;;;;;;;0.20;0.20;;;8.50;99.90;;;;;;5072564;28;20504;-70
2023/03/29 00:53:37;;;;;;;0.98;0.82;;;8.60;99.90;;;;;;5071378;28;20069;-70
2023/03/29 00:56:06;;;;;;;0.10;0.10;;;8.60;99.90;;;;;;5070606;28;20132;-70
2023/03/29 00:58:41;;;;;;;1.15;0.80;;;8.70;99.90;;;;;;5072441;28;20024;-70
2023/03/29 01:01:18;;;;;;;1.75;1.23;;;8.60;99.90;;;;;;5072275;28;20040;-70
2023/03/29 01:03:52;;;;;;;5.50;0.57;;;8.60;99.90;;;;;;5071183;28;20039;-70
2023/03/29 01:06:22;;;;;;;0.13;0.13;;;8.70;99.90;;;;;;5072127;28;20036;-70
2023/03/29 01:08:59;;;;;;;1.85;1.08;;;8.70;99.90;;;;;;5070860;28;20028;-70
2023/03/29 01:11:25;;;;;;;0.32;0.30;;;8.60;99.90;;;;;;5070764;28;20033;-70
2023/03/29 01:14:22;;;;;;;11.63;0.95;;;8.50;99.90;;;;;;5071125;28;20470;-70
2023/03/29 01:16:48;;;;;;;0.90;0.90;;;8.50;99.90;;;;;;5054196;28;20033;-70
2023/03/29 01:19:20;;;;;;;0.20;0.20;;;8.40;99.90;;;;;;5070910;28;20508;-70
2023/03/29 01:21:57;;;;;;;1.95;1.00;;;8.50;99.90;;;;;;5070641;28;20388;-71
2023/03/29 01:24:36;;;;;;;0.08;0.08;;;8.60;99.90;;;;;;5070676;28;20544;-70
2023/03/29 01:27:38;;;;;;;0.30;0.10;;;8.70;99.90;;;;;;5056895;28;20054;-70
2023/03/29 01:30:11;;;;;;;0.13;0.13;;;8.70;99.90;;;;;;5053943;28;20061;-70
2023/03/29 01:32:47;;;;;;;1.75;1.00;;;8.60;99.90;;;;;;5070996;28;20099;-70
2023/03/29 01:35:40;;;;;;;2.75;0.68;;;8.50;99.90;;;;;;5071925;28;20016;-70
2023/03/29 01:38:19;;;;;;;0.77;0.50;;;8.60;99.90;;;;;;5067230;28;20056;-70
2023/03/29 01:40:45;;;;;;;2.55;2.05;;;8.50;99.90;;;;;;5071925;28;20036;-70
2023/03/29 01:43:26;;;;;;;0.65;0.43;;;8.50;99.90;;;;;;5070795;28;20082;-70
2023/03/29 01:46:17;;;;;;;0.00;0.00;;;8.70;99.90;;;;;;5070679;28;20033;-70
2023/03/29 01:48:56;;;;;;;0.00;0.00;;;8.60;99.90;;;;;;5071327;28;20485;-70
2023/03/29 01:51:29;;;;;;;3.05;1.25;;;8.50;99.90;;;;;;5074226;28;20028;-70
2023/03/29 01:54:01;;;;;;;0.20;0.20;;;8.40;99.90;;;;;;5075265;28;20492;-71
2023/03/29 01:56:29;;;;;;;3.78;1.75;;;8.60;99.90;;;;;;5074091;28;20021;-70
2023/03/29 01:59:01;;;;;;;0.68;0.50;;;8.70;99.90;;;;;;5074319;28;20028;-71
2023/03/29 02:01:33;;;;;;;0.40;0.35;;;8.50;99.90;;;;;;5075289;28;20111;-70
2023/03/29 02:04:03;;;;;;;0.13;0.13;;;8.50;99.90;;;;;;5075478;28;20040;-70
2023/03/29 02:06:33;;;;;;;0.20;0.20;;;8.70;99.90;;;;;;5073606;28;20023;-70
2023/03/29 02:08:59;;;;;;;0.20;0.20;;;8.40;99.90;;;;;;5075151;28;20058;-70
2023/03/29 02:11:28;;;;;;;0.20;0.20;;;8.60;99.90;;;;;;5073589;28;20031;-70
2023/03/29 02:13:58;;;;;;;0.00;0.00;;;8.50;99.90;;;;;;5073885;28;20031;-70
2023/03/29 02:16:23;;;;;;;2.40;0.82;;;8.70;99.90;;;;;;5073585;28;20036;-71
2023/03/29 02:18:53;;;;;;;0.10;0.10;;;8.70;99.90;;;;;;5093668;28;20017;-71
2023/03/29 02:21:55;;;;;;;0.10;0.10;;;8.70;99.90;;;;;;5094700;28;20043;-71
2023/03/29 02:24:22;;;;;;;;;;;8.70;99.90;;;;;;5095497;28;20059;-70
2023/03/29 02:26:48;;;;;;;0.22;0.22;;;8.60;99.90;;;;;;5095115;28;19908;-70
2023/03/29 02:29:14;;;;;;;0.20;0.20;;;8.70;99.90;;;;;;5093978;28;20036;-70
2023/03/29 02:31:49;;;;;;;0.10;0.10;;;8.90;99.90;;;;;;5094999;28;20028;-70
2023/03/29 02:34:40;;;;;;;0.95;0.93;;;8.80;99.90;;;;;;5093352;28;20471;-71
2023/03/29 02:37:12;;;;;;;0.52;0.52;;;8.50;99.90;;;;;;5093208;28;20027;-70
2023/03/29 02:39:39;;;;;;;1.98;0.85;;;8.60;99.90;;;;;;5093634;28;20495;-70
2023/03/29 02:42:08;;;;;;;16.17;1.23;;;8.60;99.90;;;;;;5094611;28;20068;-69
2023/03/29 02:44:38;;;;;;;1.25;1.17;;;8.60;99.90;;;;;;5093543;28;20051;-70
2023/03/29 02:47:19;;;;;;;0.10;0.10;;;8.70;99.90;;;;;;5093224;28;20020;-70
2023/03/29 02:49:45;;;;;;;0.17;0.17;;;8.80;99.90;;;;;;5094679;28;20406;-70
2023/03/29 02:52:16;;;;;;;1.75;1.65;;;8.80;99.90;;;;;;5092778;28;20020;-71
2023/03/29 02:54:45;;;;;;;4.43;1.35;;;8.90;99.90;;;;;;5093730;28;20028;-70
2023/03/29 02:57:11;;;;;;;1.65;1.02;;;8.80;99.90;;;;;;5094272;28;20036;-71
2023/03/29 02:59:42;;;;;;;11.50;0.68;;;8.60;99.90;;;;;;5093257;28;20028;-71
2023/03/29 03:02:10;;;;;;;0.95;0.93;;;8.80;99.90;;;;;;5093384;28;20024;-71
2023/03/29 03:04:36;;;;;;;1.55;0.30;;;8.90;99.90;;;;;;5092648;28;20128;-71
2023/03/29 03:07:04;;;;;;;0.10;0.10;;;8.90;99.90;;;;;;5093343;28;20097;-71
2023/03/29 03:09:30;;;;;;;1.52;0.68;;;8.70;99.90;;;;;;5092852;28;20549;-71
2023/03/29 03:11:56;;;;;;;0.85;0.38;;;8.60;99.90;;;;;;5092966;28;20536;-71
2023/03/29 03:14:24;;;;;;;0.20;0.20;;;8.70;99.90;;;;;;5092764;28;20035;-71
2023/03/29 03:16:49;;;;;;;0.30;0.30;;;8.90;99.90;;;;;;5076228;28;20028;-70
2023/03/29 03:19:15;;;;;;;0.10;0.10;;;8.70;99.90;;;;;;5092644;28;20032;-71
2023/03/29 03:21:42;;;;;;;0.85;0.20;;;8.60;99.90;;;;;;5092799;28;20491;-71
2023/03/29 03:24:09;;;;;;;0.95;0.55;;;8.70;99.90;;;;;;5092383;28;20032;-70
2023/03/29 03:26:37;;;;;;;1.55;0.55;;;8.90;99.90;;;;;;5092398;28;20016;-71
2023/03/29 03:29:04;;;;;;;1.95;1.85;;;9.00;99.90;;;;;;5087017;28;20396;-71
2023/03/29 03:32:02;;;;;;;0.13;0.13;;;8.80;99.90;;;;;;5087448;28;20086;-71
2023/03/29 03:34:47;;;;;;;1.88;1.33;;;8.70;99.90;;;;;;5093400;28;20119;-71
2023/03/29 03:37:14;;;;;;;0.30;0.30;;;8.60;99.90;;;;;;5092427;28;20111;-71
2023/03/29 03:39:40;;;;;;;0.52;0.52;;;8.60;99.90;;;;;;5092185;28;20392;-71
2023/03/29 03:42:08;;;;;;;0.63;0.50;;;8.70;99.90;;;;;;5092402;28;20082;-70
2023/03/29 03:44:38;;;;;;;3.92;1.45;;;8.50;99.90;;;;;;5092173;28;20020;-70
2023/03/29 03:47:16;;;;;;;0.40;0.40;;;8.50;99.90;;;;;;5091963;28;20081;-70
2023/03/29 03:49:42;;;;;;;0.10;0.10;;;8.60;99.90;;;;;;5074894;28;20491;-71
2023/03/29 03:52:08;;;;;;;0.40;0.40;;;8.60;99.90;;;;;;5092107;28;20016;-70
2023/03/29 03:54:34;;;;;;;8.48;1.85;;;8.70;99.90;;;;;;5093187;28;20070;-70
2023/03/29 03:57:18;;;;;;;0.95;0.75;;;8.80;99.90;;;;;;5092304;28;20511;-71
2023/03/29 03:59:49;;;;;;;0.43;0.43;;;8.80;99.90;;;;;;5091674;28;20028;-70
2023/03/29 04:02:23;;;;;;;3.95;1.65;;;8.70;99.90;;;;;;5091876;28;20020;-70
2023/03/29 04:04:49;;;;;;;0.60;0.60;;;8.70;99.90;;;;;;5091937;28;20361;-70
2023/03/29 04:07:17;;;;;;;1.77;0.73;;;8.70;99.90;;;;;;5091685;28;20059;-69
2023/03/29 04:10:01;;;;;;;2.63;0.82;;;8.70;99.90;;;;;;5078417;28;20056;-71
2023/03/29 04:12:45;;;;;;;0.80;0.40;;;8.90;99.90;;;;;;5089539;28;20448;-70
2023/03/29 04:15:11;;;;;;;0.30;0.30;;;9.00;99.90;;;;;;5091909;28;20107;-71
2023/03/29 04:17:42;;;;;;;0.98;0.85;;;9.00;99.90;;;;;;5091465;28;20059;-70
2023/03/29 04:20:27;;;;;;;0.50;0.50;;;8.90;99.90;;;;;;5091550;28;20480;-71
2023/03/29 04:22:53;;;;;;;0.80;0.68;;;9.00;99.90;;;;;;5091430;28;20012;-71
2023/03/29 04:25:21;;;;;;;0.85;0.60;;;8.90;99.90;;;;;;5091497;28;20078;-71
2023/03/29 04:27:49;;;;;;;2.30;0.45;;;9.00;99.90;;;;;;5093350;28;20456;-70
2023/03/29 04:30:33;;;;;;;0.10;0.10;;;9.00;99.90;;;;;;5092695;28;20043;-71
2023/03/29 04:33:14;;;;;;;1.83;1.35;;;9.20;99.90;;;;;;5091375;28;20137;-70
2023/03/29 04:35:44;;;;;;;2.83;1.23;;;9.20;99.90;;;;;;5091248;28;20117;-70
2023/03/29 04:38:13;;;;;;;0.10;0.10;;;9.20;99.90;;;;;;5091343;28;20032;-70
2023/03/29 04:40:40;;;;;;;2.47;2.10;;;9.10;99.90;;;;;;5091386;28;20492;-71
2023/03/29 04:43:28;;;;;;;0.85;0.85;;;9.20;99.90;;;;;;5081000;28;20404;-71
2023/03/29 04:46:08;;;;;;;0.00;0.00;;;9.10;99.90;;;;;;5091132;28;20134;-70
2023/03/29 04:48:56;;;;;;;0.52;0.52;;;9.00;99.90;;;;;;5086691;28;20425;-70
2023/03/29 04:51:32;;;;;;;2.60;0.90;;;9.00;99.90;;;;;;5091572;28;20028;-70
2023/03/29 04:53:58;;;;;;;6.63;0.63;;;9.00;99.90;;;;;;5091250;28;20024;-71
2023/03/29 04:56:25;;;;;;;0.90;0.30;;;8.90;99.90;;;;;;5091395;28;20039;-70
2023/03/29 04:59:26;;;;;;;0.95;0.95;;;9.00;99.90;;;;;;5066180;28;20048;-70
2023/03/29 05:01:53;;;;;;;3.55;1.90;;;9.00;99.90;;;;;;5091149;28;20066;-70
2023/03/29 05:04:19;;;;;;;1.02;1.00;;;9.00;99.90;;;;;;5091173;28;20020;-70
2023/03/29 05:07:01;;;;;;;0.47;0.38;;;8.90;99.90;;;;;;5091315;28;20357;-70
2023/03/29 05:09:28;;;;;;;4.18;1.02;;;9.00;99.90;;;;;;5091179;28;20501;-70
2023/03/29 05:11:54;;;;;;;0.90;0.65;;;9.00;99.90;;;;;;5091302;28;20067;-71
2023/03/29 05:14:22;;;;;;;2.28;0.90;;;8.90;99.90;;;;;;5090990;28;20020;-71
2023/03/29 05:16:48;;;;;;;0.20;0.20;;;8.90;99.90;;;;;;5091008;28;20029;-70
2023/03/29 05:19:15;;;;;;;1.33;1.20;;;8.70;99.90;;;;;;5091068;28;20392;-70
2023/03/29 05:21:45;;;;;;;0.43;0.43;;;8.70;99.90;;;;;;5091039;28;20058;-71
2023/03/29 05:24:15;;;;;;;1.70;0.88;;;8.90;99.90;;;;;;5092684;28;20032;-71
2023/03/29 05:26:55;;;;;;;0.40;0.40;;;8.80;99.90;;;;;;5095013;28;20032;-70
2023/03/29 05:29:22;;;;;;;0.00;0.00;;;8.90;99.90;;;;;;5094916;28;20036;-71
2023/03/29 05:31:54;;;;;;;0.20;0.20;;;8.90;99.90;;;;;;5094689;28;20016;-71
2023/03/29 05:34:20;;;;;;;1.75;1.13;;;8.80;99.90;;;;;;5094993;28;20077;-70
2023/03/29 05:36:52;;;;;;;0.32;0.32;;;8.70;99.90;;;;;;5094403;28;20020;-70
2023/03/29 05:39:19;;;;;;;0.10;0.10;;;8.90;99.90;;;;;;5094254;28;20119;-70
2023/03/29 05:41:45;;;;;;;0.40;0.40;;;8.90;99.90;;;;;;5094180;28;20028;-70
2023/03/29 05:44:27;;;;;;;0.77;0.77;;;9.20;99.90;;;;;;5094301;28;20032;-70
2023/03/29 05:46:59;;;;;;;0.10;0.10;;;9.20;99.90;;;;;;5094450;28;20025;-71
2023/03/29 05:49:25;;;;;;;0.40;0.40;;;9.20;99.90;;;;;;5094450;28;20066;-71
2023/03/29 05:51:59;;;;;;;0.45;0.45;;;9.20;99.90;;;;;;5094340;28;20035;-71
2023/03/29 05:54:27;;;;;;;0.10;0.10;;;9.40;99.90;;;;;;5094491;28;20030;-73
2023/03/29 05:56:53;;;;;;;0.10;0.10;;;9.20;99.90;;;;;;5094263;28;20458;-70
2023/03/29 05:59:19;;;;;;;0.20;0.20;;;9.20;99.90;;;;;;5094361;28;20020;-71
2023/03/29 06:01:46;;;;;;;2.05;1.85;;;9.20;99.90;;;;;;5077560;28;20494;-71
2023/03/29 06:04:13;;;;;;;1.65;1.30;;;9.30;99.90;;;;;;5095578;28;20028;-70
2023/03/29 06:06:55;;;;;;;0.43;0.43;;;9.20;99.90;;;;;;5094214;28;20047;-71
2023/03/29 06:09:21;;;;;;;1.02;0.88;;;9.20;99.90;;;;;;5081487;28;20139;-72
2023/03/29 06:12:00;;;;;;;1.27;0.88;;;9.20;99.90;;;;;;5078289;28;20035;-70
2023/03/29 06:14:36;;;;;;;0.82;0.73;;;9.20;99.90;;;;;;5071846;28;20016;-70
2023/03/29 06:17:24;;;;;;;0.90;0.90;;;9.10;99.90;;;;;;5074255;28;20048;-70
2023/03/29 06:19:51;;;;;;;6.45;1.70;;;9.10;99.90;;;;;;5082125;28;20024;-70
2023/03/29 06:22:18;;;;;;;0.52;0.52;;;9.30;99.90;;;;;;5064955;28;20089;-70
2023/03/29 06:24:44;;;;;;;0.52;0.47;;;9.30;99.90;;;;;;5075236;28;21059;-70
2023/03/29 06:27:20;;;;;;;1.45;1.35;;;9.40;99.90;;;;;;5093042;28;20514;-70
2023/03/29 06:29:47;;;;;;;2.03;0.88;;;9.40;99.90;;;;;;5075814;28;20036;-70
2023/03/29 06:32:14;;;;;;;0.50;0.50;;;9.30;99.90;;;;;;5092938;28;20040;-70
2023/03/29 06:34:55;;;;;;;1.70;1.13;;;9.30;99.90;;;;;;5092389;28;20020;-70
2023/03/29 06:37:31;;;;;;;2.78;1.55;;;9.20;99.90;;;;;;5092601;28;20024;-70
2023/03/29 06:40:09;;;;;;;0.82;0.50;;;9.20;99.90;;;;;;5066939;28;20051;-70
2023/03/29 06:42:43;;;;;;;0.30;0.30;;;9.20;99.90;;;;;;5092612;28;20031;-70
2023/03/29 06:45:30;;;;;;;2.30;0.30;;;9.30;99.90;;;;;;5094308;28;20036;-70
2023/03/29 06:47:59;;;;;;;5.32;1.08;;;9.50;99.90;;;;;;5076279;28;20028;-70
2023/03/29 06:50:24;;;;;;;11.98;0.75;;;9.50;99.90;;;;;;5093872;28;20047;-71
2023/03/29 06:53:06;;;;;;;2.57;1.40;;;9.30;99.90;;;;;;5092574;28;20027;-71
2023/03/29 06:55:33;;;;;;;4.90;0.90;;;9.30;99.90;;;;;;5092445;28;20282;-71
2023/03/29 06:58:09;;;;;;;2.38;2.15;;;9.30;99.90;;;;;;5092110;28;20081;-71
2023/03/29 07:00:38;;;;;;;6.50;2.15;;;9.40;99.90;;;;;;5090708;28;20066;-71
2023/03/29 07:03:19;;;;;;;1.40;1.30;;;9.30;99.90;;;;;;5088449;28;20404;-71
2023/03/29 07:05:49;;;;;;;0.10;0.10;;;9.40;99.90;;;;;;5081097;28;20050;-71
2023/03/29 07:08:15;;;;;;;2.17;1.02;;;9.50;99.90;;;;;;5081070;28;20021;-70
2023/03/29 07:10:52;;;;;;;3.38;0.88;;;9.50;99.90;;;;;;5072786;28;20039;-71
2023/03/29 07:13:39;;;;;;;2.28;1.80;;;9.80;99.90;;;;;;5071960;28;20028;-70
2023/03/29 07:16:11;;;;;;;0.55;0.50;;;9.70;99.90;;;;;;5085146;28;20032;-70
2023/03/29 07:18:54;;;;;;;1.10;0.85;;;9.70;99.90;;;;;;5084395;28;20455;-70
2023/03/29 07:21:38;;;;;;;1.60;0.75;;;9.70;99.90;;;;;;5078154;28;20043;-71
2023/03/29 07:24:05;;;;;;;0.70;0.70;;;9.80;99.90;;;;;;5057071;28;20024;-71
2023/03/29 07:26:31;;;;;;;4.68;2.20;;;10.10;99.90;;;;;;5087344;28;20047;-70
2023/03/29 07:28:59;;;;;;;4.65;1.58;;;10.10;99.90;;;;;;5073645;28;20037;-70
2023/03/29 07:31:24;;;;;;;1.05;1.02;;;10.00;99.90;;;;;;5083215;28;20035;-71
2023/03/29 07:33:59;;;;;;;1.17;0.98;;;10.00;99.90;;;;;;5080335;28;20021;-71
2023/03/29 07:36:27;;;;;;;4.50;2.10;;;10.00;99.90;;;;;;5069140;28;20031;-71
2023/03/29 07:38:55;;;;;;;1.38;0.65;;;9.60;99.90;;;;;;5055543;28;20484;-71
2023/03/29 07:41:21;;;;;;;0.90;0.85;;;9.60;99.90;;;;;;5072105;28;20024;-70
2023/03/29 07:43:56;;;;;;;1.55;0.95;;;9.60;99.90;;;;;;5081738;28;20028;-71
2023/03/29 07:46:23;;;;;;;0.73;0.73;;;9.70;99.90;;;;;;5066513;28;20089;-70
2023/03/29 07:48:50;;;;;;;0.55;0.50;;;9.60;99.90;;;;;;5075351;28;20461;-70
2023/03/29 07:51:15;;;;;;;2.33;1.80;;;9.50;99.90;;;;;;5071664;28;20028;-71
2023/03/29 07:53:48;;;;;;;12.98;2.78;;;9.70;99.90;;;;;;5072112;28;20100;-71
2023/03/29 07:56:49;;;;;;;3.15;1.75;;;9.70;99.90;;;;;;5070589;28;20071;-71
2023/03/29 07:59:41;;;;;;;0.43;0.40;;;9.60;99.90;;;;;;5071745;28;20032;-71
2023/03/29 08:02:12;;;;;;;0.20;0.20;;;9.50;99.90;;;;;;5074842;28;20024;-71
2023/03/29 08:04:42;;;;;;;0.20;0.20;;;9.50;99.90;;;;;;5076984;28;20031;-71
2023/03/29 08:07:17;;;;;;;2.97;2.78;;;9.60;99.90;;;;;;5085004;28;20036;-71
2023/03/29 08:09:56;;;;;;;1.92;1.05;;;9.80;99.90;;;;;;5071582;28;20052;-71
2023/03/29 08:12:31;;;;;;;1.67;1.50;;;9.80;99.90;;;;;;5069776;28;20020;-71
2023/03/29 08:14:58;;;;;;;3.70;3.00;;;9.80;99.90;;;;;;5071555;28;20029;-71
2023/03/29 08:17:32;;;;;;;2.33;2.13;;;9.80;99.90;;;;;;5081506;28;20056;-71
2023/03/29 08:19:58;;;;;;;1.33;1.23;;;9.90;99.90;;;;;;5078749;28;20507;-71
2023/03/29 08:22:24;;;;;;;2.53;1.85;;;9.90;99.90;;;;;;5079291;28;20111;-72
2023/03/29 08:25:09;;;;;;;1.02;1.00;;;9.80;99.90;;;;;;5065050;28;20043;-70
2023/03/29 08:27:41;;;;;;;;;;;10.00;99.90;;;;;;5091107;28;20020;-71
2023/03/29 08:30:09;;;;;;;2.28;1.02;;;10.00;99.90;;;;;;5091374;28;19916;-71
2023/03/29 08:32:37;;;;;;;2.65;1.45;;;10.10;99.90;;;;;;5091466;28;20083;-71
2023/03/29 08:35:06;;;;;;;0.82;0.75;;;10.00;99.90;;;;;;5090005;28;20477;-70
2023/03/29 08:37:40;;;;;;;2.25;1.13;;;10.10;99.90;;;;;;5091429;28;20028;-71
2023/03/29 08:40:07;;;;;;;1.75;0.55;;;10.10;99.90;;;;;;5090927;28;20085;-71
2023/03/29 08:42:32;;;;;;;13.57;2.78;;;10.30;99.90;;;;;;5088418;28;20416;-71
2023/03/29 08:45:15;;;;;;;2.45;1.70;;;10.20;99.90;;;;;;5080248;28;20115;-71
2023/03/29 08:48:11;;;;;;;0.50;0.47;;;10.30;99.90;;;;;;5091501;28;20043;-71
2023/03/29 08:50:46;;;;;;;0.80;0.80;;;10.40;99.90;;;;;;5092359;28;20369;-71
2023/03/29 08:53:19;;;;;;;2.97;1.63;;;10.60;99.90;;;;;;5091309;28;20024;-71
2023/03/29 08:56:17;;;;;;;3.78;1.52;;;10.70;99.90;;;;;;5066239;28;20413;-70
2023/03/29 08:59:02;;;;;;;1.75;0.88;;;10.70;99.90;;;;;;5073471;28;20043;-71
2023/03/29 09:01:34;;;;;;;2.22;1.63;;;10.70;99.90;;;;;;5075106;28;20096;-70
2023/03/29 09:04:25;;;;;;;2.92;2.05;;;10.80;99.90;;;;;;5062058;28;20432;-71
2023/03/29 09:07:10;;;;;;;2.53;2.03;;;10.80;99.90;;;;;;5074832;28;20056;-71
2023/03/29 09:09:41;;;;;;;1.27;1.13;;;11.00;99.90;;;;;;5062572;28;20041;-71
2023/03/29 09:12:48;;;;;;;2.85;2.13;;;11.20;99.90;;;;;;5076079;28;20025;-71
2023/03/29 09:15:29;;;;;;;8.82;1.70;;;11.30;99.90;;;;;;5074893;28;20055;-71
2023/03/29 09:18:42;;;;;;;1.85;1.65;;;11.30;99.90;;;;;;5074597;28;20031;-70
2023/03/29 09:21:15;;;;;;;4.25;2.15;;;11.40;99.90;;;;;;5074507;28;20020;-71
2023/03/29 09:24:24;;;;;;;3.38;3.17;;;11.50;99.90;;;;;;5075883;28;20439;-71
2023/03/29 09:27:41;;;;;;;2.45;1.23;;;11.60;99.90;;;;;;5066208;28;20040;-70
2023/03/29 09:30:40;;;;;;;1.02;0.98;;;11.70;99.90;;;;;;5056911;28;20130;-71
2023/03/29 09:33:21;;;;;;;4.78;0.70;;;11.70;99.90;;;;;;5094919;28;20487;-71
2023/03/29 09:36:16;;;;;;;2.00;1.23;;;11.70;99.90;;;;;;5094391;28;20089;-71
2023/03/29 09:38:47;;;;;;;2.22;1.65;;;11.80;99.90;;;;;;5077833;28;20136;-71
2023/03/29 09:41:38;;;;;;;4.07;1.88;;;12.00;99.90;;;;;;5084360;28;20031;-72
2023/03/29 09:44:17;;;;;;;1.45;0.88;;;12.10;99.90;;;;;;5062696;28;20110;-71
2023/03/29 09:47:14;;;;;;;1.02;0.90;;;12.10;99.90;;;;;;5082442;28;20044;-72
2023/03/29 09:49:45;;;;;;;1.17;0.68;;;12.50;99.90;;;;;;5070212;28;20369;-71
2023/03/29 09:52:15;;;;;;;6.93;3.22;;;12.50;99.90;;;;;;5055436;28;20020;-71
2023/03/29 09:54:46;;;;;;;8.68;2.83;;;12.50;99.90;;;;;;5075899;28;20025;-71
2023/03/29 09:57:30;;;;;;;8.52;3.20;;;12.80;99.90;;;;;;5076936;28;20396;-71
2023/03/29 09:59:57;;;;;;;6.03;2.40;;;13.00;99.90;;;;;;5083305;28;20035;-71
2023/03/29 10:02:23;;;;;;;6.68;2.20;;;12.80;99.90;;;;;;5077633;28;20016;-71
2023/03/29 10:04:54;;;;;;;1.75;1.17;;;12.70;99.90;;;;;;5073822;28;20384;-71
2023/03/29 10:07:20;;;;;;;4.00;1.70;;;12.70;99.90;;;;;;5058591;28;20419;-71
2023/03/29 10:09:54;;;;;;;1.58;1.33;;;12.90;99.90;;;;;;5085731;28;20492;-71
2023/03/29 10:12:21;;;;;;;0.95;0.88;;;13.30;99.90;;;;;;5061538;28;20028;-71
2023/03/29 10:14:50;;;;;;;0.25;0.25;;;13.30;99.90;;;;;;5075526;28;20492;-72
2023/03/29 10:17:24;;;;;;;3.80;2.15;;;13.50;99.90;;;;;;5077525;28;20012;-72
2023/03/29 10:20:05;;;;;;;3.33;1.20;;;14.00;99.90;;;;;;5078875;28;20035;-71
2023/03/29 10:22:36;;;;;;;1.77;1.33;;;13.70;99.90;;;;;;5074412;28;20106;-71
2023/03/29 10:25:03;;;;;;;2.00;1.35;;;13.50;99.90;;;;;;5078246;28;20503;-71
2023/03/29 10:27:33;;;;;;;1.65;1.35;;;13.60;99.90;;;;;;5091554;28;20031;-71
2023/03/29 10:30:11;;;;;;;3.55;0.63;;;14.20;99.90;;;;;;5087935;28;20496;-71
2023/03/29 10:32:39;;;;;;;1.40;1.02;;;14.30;99.90;;;;;;5074489;28;20024;-72
2023/03/29 10:35:27;;;;;;;4.07;1.42;;;14.40;99.90;;;;;;5080355;28;20024;-72
2023/03/29 10:37:56;;;;;;;0.20;0.20;;;14.20;99.90;;;;;;5056637;28;20040;-72
2023/03/29 10:40:31;;;;;;;0.77;0.65;;;14.40;99.90;;;;;;5075540;28;20045;-70
2023/03/29 10:43:31;;;;;;;3.70;1.65;;;14.40;99.90;;;;;;5073622;28;20377;-70
2023/03/29 10:46:25;;;;;;;1.83;1.27;;;14.40;99.90;;;;;;5068581;28;20036;-70
2023/03/29 10:48:56;;;;;;;5.82;2.40;;;14.10;99.90;;;;;;5074940;28;20036;-73
2023/03/29 10:51:24;;;;;;;2.45;1.40;;;14.00;99.90;;;;;;5083218;28;20048;-70
2023/03/29 10:53:49;;;;;;;0.20;0.20;;;14.20;99.90;;;;;;5077768;28;20484;-69
2023/03/29 10:56:54;;;;;;;2.20;1.23;;;14.30;99.90;;;;;;5072127;28;20113;-70
2023/03/29 10:59:28;;;;;;;2.33;1.90;;;14.60;99.90;;;;;;5073166;28;20503;-70
2023/03/29 11:02:02;;;;;;;4.60;1.73;;;14.70;99.90;;;;;;5076867;28;20024;-70
2023/03/29 11:04:37;;;;;;;1.25;1.15;;;14.30;99.90;;;;;;5077411;28;20023;-70
2023/03/29 11:07:25;;;;;;;2.35;0.93;;;14.30;99.90;;;;;;5075046;28;20033;-68
2023/03/29 11:10:03;;;;;;;4.70;1.98;;;14.50;99.90;;;;;;5073564;28;20047;-69
2023/03/29 11:12:59;;;;;;;3.42;1.30;;;14.40;99.90;;;;;;5076801;28;20069;-71
2023/03/29 11:15:50;;;;;;;0.98;0.45;;;14.40;99.90;;;;;;5076041;28;20033;-70
2023/03/29 11:18:46;;;;;;;3.42;1.50;;;14.70;99.90;;;;;;5065689;28;20599;-70
2023/03/29 11:21:26;;;;;;;1.00;0.55;;;14.60;99.90;;;;;;5079751;28;20037;-69
2023/03/29 11:23:58;;;;;;;3.78;1.35;;;14.60;99.90;;;;;;5077471;28;20032;-71
2023/03/29 11:27:00;;;;;;;12.27;2.78;;;14.90;99.90;;;;;;5088717;28;20086;-70
2023/03/29 11:29:39;;;;;;;2.42;1.77;;;14.70;99.90;;;;;;5092897;28;20048;-71
2023/03/29 11:32:12;;;;;;;0.45;0.28;;;14.60;99.90;;;;;;5068993;28;20480;-70
2023/03/29 11:34:51;;;;;;;0.65;0.65;;;14.60;99.90;;;;;;5091630;28;20055;-71
2023/03/29 11:37:26;;;;;;;8.73;2.08;;;14.60;99.90;;;;;;5082429;28;20034;-72
2023/03/29 11:40:14;;;;;;;2.58;1.48;;;14.60;99.90;;;;;;5080687;28;20389;-71
2023/03/29 11:42:44;;;;;;;2.92;1.55;;;14.50;99.90;;;;;;5075505;28;20024;-71
2023/03/29 11:45:34;;;;;;;4.90;1.55;;;14.50;99.90;;;;;;5070931;28;20052;-71
2023/03/29 11:48:03;;;;;;;0.65;0.65;;;14.60;99.90;;;;;;5087649;28;20078;-71
2023/03/29 11:50:42;;;;;;;3.65;1.30;;;14.80;99.90;;;;;;5078898;28;20024;-71
2023/03/29 11:53:25;;;;;;;13.07;1.40;;;14.90;99.90;;;;;;5076947;28;20028;-72
2023/03/29 11:55:54;;;;;;;0.10;0.10;;;14.80;99.90;;;;;;5059687;28;20028;-71
2023/03/29 11:58:32;;;;;;;3.92;3.03;;;14.90;99.90;;;;;;5082696;28;20032;-71
2023/03/29 12:01:31;;;;;;;5.38;1.45;;;15.30;99.90;;;;;;5075681;28;20052;-71
2023/03/29 12:04:01;;;;;;;0.28;0.13;;;15.60;99.90;;;;;;5071645;28;20090;-71
2023/03/29 12:06:30;;;;;;;1.15;1.05;;;16.10;99.90;;;;;;5073540;28;20016;-71
2023/03/29 12:09:21;;;;;;;4.28;1.35;;;15.80;99.90;;;;;;5084557;28;20032;-71
2023/03/29 12:12:23;;;;;;;0.33;0.33;;;16.10;99.90;;;;;;5076796;28;20123;-71
2023/03/29 12:15:16;;;;;;;1.27;0.85;;;15.80;99.90;;;;;;5079484;28;20048;-70
2023/03/29 12:18:05;;;;;;;2.35;1.00;;;15.30;99.90;;;;;;5070079;28;20635;-70
2023/03/29 12:20:36;;;;;;;5.05;1.00;;;15.20;99.90;;;;;;5071313;28;20428;-70
2023/03/29 12:23:04;;;;;;;1.92;0.95;;;15.30;99.90;;;;;;5063522;28;20020;-70
2023/03/29 12:25:36;;;;;;;5.43;1.55;;;15.30;99.90;;;;;;5087156;28;20024;-70
2023/03/29 12:28:34;;;;;;;2.17;1.08;;;15.00;99.90;;;;;;5090475;28;20490;-70
2023/03/29 12:31:23;;;;;;;1.75;0.70;;;15.00;99.90;;;;;;5083113;28;20143;-71
2023/03/29 12:34:09;;;;;;;1.33;1.20;;;15.20;99.90;;;;;;5080921;28;20102;-70
2023/03/29 12:37:24;;;;;;;4.38;1.42;;;15.20;99.90;;;;;;5075967;28;20097;-71
2023/03/29 12:40:15;;;;;;;2.35;0.85;;;15.50;99.90;;;;;;5084474;28;20051;-71
2023/03/29 12:43:06;;;;;;;2.05;1.27;;;15.70;99.90;;;;;;5092719;28;20115;-70
2023/03/29 12:45:54;;;;;;;0.35;0.35;;;16.00;99.90;;;;;;5093243;28;20093;-70
2023/03/29 12:48:25;;;;;;;1.20;1.10;;;16.00;99.90;;;;;;5091458;28;20659;-70
2023/03/29 12:51:18;;;;;;;1.35;0.95;;;15.80;99.90;;;;;;5090756;28;20388;-70
2023/03/29 12:53:52;;;;;;;0.17;0.17;;;15.50;99.90;;;;;;5090000;28;20047;-70
2023/03/29 12:56:22;;;;;;;1.77;1.38;;;15.80;99.90;;;;;;5092565;28;20020;-70
2023/03/29 12:59:10;;;;;;;0.40;0.40;;;15.70;99.90;;;;;;5092457;28;20020;-70
2023/03/29 13:01:39;;;;;;;0.57;0.20;;;16.00;99.90;;;;;;5091256;28;20040;-71
2023/03/29 13:04:15;;;;;;;0.22;0.22;;;16.20;99.90;;;;;;5092346;28;20032;-70
2023/03/29 13:06:47;;;;;;;0.52;0.52;;;16.50;99.90;;;;;;5092685;28;20024;-69
2023/03/29 13:09:48;;;;;;;2.88;1.60;;;16.60;99.90;;;;;;5092733;28;20039;-70
2023/03/29 13:12:14;;;;;;;0.22;0.22;;;16.30;99.90;;;;;;5092331;28;20069;-70
2023/03/29 13:14:49;;;;;;;2.67;1.13;;;16.40;99.90;;;;;;5092415;28;20433;-71
2023/03/29 13:17:24;;;;;;;1.30;0.85;;;16.40;99.90;;;;;;5089599;28;20036;-70
2023/03/29 13:20:09;;;;;;;0.20;0.20;;;16.50;99.90;;;;;;5092564;28;20059;-70
2023/03/29 13:23:00;;;;;;;2.33;1.35;;;16.30;99.90;;;;;;5092290;28;20035;-70
2023/03/29 13:25:52;;;;;;;0.38;0.22;;;16.10;99.90;;;;;;5092197;28;20115;-69
2023/03/29 13:28:18;;;;;;;0.60;0.20;;;16.20;99.90;;;;;;5092215;28;20388;-70
2023/03/29 13:30:55;;;;;;;0.35;0.35;;;16.20;99.90;;;;;;5092012;28;20043;-71
2023/03/29 13:33:37;;;;;;;0.40;0.40;;;16.00;99.90;;;;;;5092258;28;20472;-70
2023/03/29 13:36:07;;;;;;;1.80;0.88;;;15.90;99.90;;;;;;5092647;28;20173;-70